Main page
METAR-TAF:

METAR-TAF

Airports :

Galesburg Municipal Airport

Galesburg, Illinois, United States

latitude: 40-56-17N, longitude: 090-25-52W, elevation: 764 ft

Current weather observation

The report was made 25 minutes ago, at 11:15 UTC
Wind 10 mph from the East with gusts up to 17 mph
Temperature 59°F
Humidity 55%
Pressure 29.84 in. Hg
Visibility: 10 miles
Clear sky

METAR: KGBG 161115Z AUTO 10009G15KT 10SM CLR 15/06 A2984 RMK AO2 T01520056

Time: 06:40 (11:40 UTC)


TAF: missing

Weather observations and forecasts of more than 4000 airports (METAR and TAF reports).

The available stations are represented by yellow and red dots on the map.

Hover mouse over dot to see the name of the station.

Then click to see weather observations and forecasts.

To change the map : click on the green buttons with a black cross to zoom in, on the green button with a dash to zoom out, or on the green arrows for adjacent maps.


METAR-TAF: